sensor_id;sensor_type;location;lat;lon;timestamp;P1;durP1;ratioP1;P2;durP2;ratioP2
27857;SDS011;16852;51.446;6.528;2023-07-20T00:01:44;3.47;;;2.33;;
27857;SDS011;16852;51.446;6.528;2023-07-20T00:03:45;2.30;;;1.77;;
27857;SDS011;16852;51.446;6.528;2023-07-20T00:05:54;2.33;;;1.55;;
27857;SDS011;16852;51.446;6.528;2023-07-20T00:07:55;3.13;;;1.90;;
27857;SDS011;16852;51.446;6.528;2023-07-20T00:09:57;2.47;;;1.63;;
27857;SDS011;16852;51.446;6.528;2023-07-20T00:11:57;3.72;;;2.30;;
27857;SDS011;16852;51.446;6.528;2023-07-20T00:14:00;3.90;;;1.90;;
27857;SDS011;16852;51.446;6.528;2023-07-20T00:16:00;3.72;;;2.28;;
27857;SDS011;16852;51.446;6.528;2023-07-20T00:18:01;3.33;;;2.00;;
27857;SDS011;16852;51.446;6.528;2023-07-20T00:20:01;4.82;;;2.00;;
27857;SDS011;16852;51.446;6.528;2023-07-20T00:22:05;3.97;;;2.25;;
27857;SDS011;16852;51.446;6.528;2023-07-20T00:24:05;3.55;;;2.22;;
27857;SDS011;16852;51.446;6.528;2023-07-20T00:26:06;3.13;;;1.83;;
27857;SDS011;16852;51.446;6.528;2023-07-20T00:28:06;3.72;;;2.05;;
27857;SDS011;16852;51.446;6.528;2023-07-20T00:30:07;4.10;;;2.15;;
27857;SDS011;16852;51.446;6.528;2023-07-20T00:32:08;2.63;;;1.92;;
27857;SDS011;16852;51.446;6.528;2023-07-20T00:34:09;2.30;;;1.80;;
27857;SDS011;16852;51.446;6.528;2023-07-20T00:36:09;3.47;;;1.90;;
27857;SDS011;16852;51.446;6.528;2023-07-20T00:38:10;3.63;;;2.20;;
27857;SDS011;16852;51.446;6.528;2023-07-20T00:40:11;2.92;;;2.13;;
27857;SDS011;16852;51.446;6.528;2023-07-20T00:42:12;2.70;;;2.08;;
27857;SDS011;16852;51.446;6.528;2023-07-20T00:44:12;2.63;;;1.98;;
27857;SDS011;16852;51.446;6.528;2023-07-20T00:46:13;3.00;;;1.80;;
27857;SDS011;16852;51.446;6.528;2023-07-20T00:48:14;4.50;;;2.05;;
27857;SDS011;16852;51.446;6.528;2023-07-20T00:50:15;3.28;;;2.05;;
27857;SDS011;16852;51.446;6.528;2023-07-20T00:52:16;5.00;;;2.58;;
27857;SDS011;16852;51.446;6.528;2023-07-20T00:54:18;2.50;;;2.03;;
27857;SDS011;16852;51.446;6.528;2023-07-20T00:56:19;3.10;;;2.10;;
27857;SDS011;16852;51.446;6.528;2023-07-20T00:58:20;3.05;;;2.22;;
27857;SDS011;16852;51.446;6.528;2023-07-20T01:00:20;3.58;;;2.30;;
27857;SDS011;16852;51.446;6.528;2023-07-20T01:02:21;4.30;;;2.50;;
27857;SDS011;16852;51.446;6.528;2023-07-20T01:04:21;3.35;;;2.30;;
27857;SDS011;16852;51.446;6.528;2023-07-20T01:09:09;5.60;;;2.70;;
27857;SDS011;16852;51.446;6.528;2023-07-20T01:11:18;3.40;;;2.65;;
27857;SDS011;16852;51.446;6.528;2023-07-20T01:13:40;3.70;;;2.70;;
27857;SDS011;16852;51.446;6.528;2023-07-20T01:15:41;4.53;;;2.60;;
27857;SDS011;16852;51.446;6.528;2023-07-20T01:17:41;7.38;;;2.90;;
27857;SDS011;16852;51.446;6.528;2023-07-20T01:19:42;5.18;;;2.92;;
27857;SDS011;16852;51.446;6.528;2023-07-20T01:21:51;5.32;;;2.97;;
27857;SDS011;16852;51.446;6.528;2023-07-20T01:27:17;6.70;;;3.15;;
27857;SDS011;16852;51.446;6.528;2023-07-20T01:28:48;3.90;;;2.60;;
27857;SDS011;16852;51.446;6.528;2023-07-20T01:32:57;3.92;;;2.60;;
27857;SDS011;16852;51.446;6.528;2023-07-20T01:34:59;5.15;;;2.58;;
27857;SDS011;16852;51.446;6.528;2023-07-20T01:37:01;6.70;;;3.70;;
27857;SDS011;16852;51.446;6.528;2023-07-20T01:39:03;5.20;;;3.22;;
27857;SDS011;16852;51.446;6.528;2023-07-20T01:41:05;6.53;;;3.65;;
27857;SDS011;16852;51.446;6.528;2023-07-20T01:43:06;4.82;;;3.40;;
27857;SDS011;16852;51.446;6.528;2023-07-20T01:45:07;5.78;;;3.50;;
27857;SDS011;16852;51.446;6.528;2023-07-20T01:47:08;4.45;;;3.13;;
27857;SDS011;16852;51.446;6.528;2023-07-20T01:49:09;4.80;;;3.85;;
27857;SDS011;16852;51.446;6.528;2023-07-20T01:51:09;5.18;;;3.15;;
27857;SDS011;16852;51.446;6.528;2023-07-20T01:53:10;5.90;;;3.17;;
27857;SDS011;16852;51.446;6.528;2023-07-20T01:55:11;4.53;;;2.80;;
27857;SDS011;16852;51.446;6.528;2023-07-20T01:57:11;4.05;;;2.80;;
27857;SDS011;16852;51.446;6.528;2023-07-20T01:59:12;5.78;;;2.45;;
27857;SDS011;16852;51.446;6.528;2023-07-20T02:01:13;4.55;;;3.13;;
27857;SDS011;16852;51.446;6.528;2023-07-20T02:03:13;6.28;;;3.08;;
27857;SDS011;16852;51.446;6.528;2023-07-20T02:05:14;5.38;;;3.17;;
27857;SDS011;16852;51.446;6.528;2023-07-20T02:07:14;4.05;;;2.92;;
27857;SDS011;16852;51.446;6.528;2023-07-20T02:09:15;5.43;;;2.92;;
27857;SDS011;16852;51.446;6.528;2023-07-20T02:11:16;5.72;;;2.75;;
27857;SDS011;16852;51.446;6.528;2023-07-20T02:13:16;7.03;;;3.97;;
27857;SDS011;16852;51.446;6.528;2023-07-20T02:15:17;4.57;;;2.88;;
27857;SDS011;16852;51.446;6.528;2023-07-20T02:17:19;6.32;;;3.85;;
27857;SDS011;16852;51.446;6.528;2023-07-20T02:19:20;6.07;;;3.17;;
27857;SDS011;16852;51.446;6.528;2023-07-20T02:21:21;3.53;;;2.63;;
27857;SDS011;16852;51.446;6.528;2023-07-20T02:23:21;4.65;;;3.05;;
27857;SDS011;16852;51.446;6.528;2023-07-20T02:25:22;5.18;;;3.22;;
27857;SDS011;16852;51.446;6.528;2023-07-20T02:27:23;5.50;;;3.50;;
27857;SDS011;16852;51.446;6.528;2023-07-20T02:29:23;5.03;;;3.30;;
27857;SDS011;16852;51.446;6.528;2023-07-20T02:31:24;3.75;;;2.53;;
27857;SDS011;16852;51.446;6.528;2023-07-20T02:33:24;4.50;;;3.17;;
27857;SDS011;16852;51.446;6.528;2023-07-20T02:35:25;4.32;;;3.28;;
27857;SDS011;16852;51.446;6.528;2023-07-20T02:37:26;3.88;;;2.88;;
27857;SDS011;16852;51.446;6.528;2023-07-20T02:39:27;4.47;;;3.58;;
27857;SDS011;16852;51.446;6.528;2023-07-20T02:41:28;5.25;;;3.47;;
27857;SDS011;16852;51.446;6.528;2023-07-20T02:43:28;5.18;;;3.45;;
27857;SDS011;16852;51.446;6.528;2023-07-20T02:45:29;6.53;;;3.22;;
27857;SDS011;16852;51.446;6.528;2023-07-20T02:47:31;8.82;;;3.53;;
27857;SDS011;16852;51.446;6.528;2023-07-20T02:49:31;4.93;;;3.05;;
27857;SDS011;16852;51.446;6.528;2023-07-20T02:51:32;4.68;;;2.92;;
27857;SDS011;16852;51.446;6.528;2023-07-20T02:53:33;6.35;;;4.30;;
27857;SDS011;16852;51.446;6.528;2023-07-20T02:55:34;5.47;;;3.53;;
27857;SDS011;16852;51.446;6.528;2023-07-20T02:57:34;6.22;;;3.13;;
27857;SDS011;16852;51.446;6.528;2023-07-20T02:59:35;4.35;;;3.38;;
27857;SDS011;16852;51.446;6.528;2023-07-20T03:01:36;4.75;;;3.17;;
27857;SDS011;16852;51.446;6.528;2023-07-20T03:03:36;5.00;;;3.60;;
27857;SDS011;16852;51.446;6.528;2023-07-20T03:05:40;5.38;;;3.45;;
27857;SDS011;16852;51.446;6.528;2023-07-20T03:09:43;4.53;;;3.20;;
27857;SDS011;16852;51.446;6.528;2023-07-20T03:11:44;5.75;;;3.42;;
27857;SDS011;16852;51.446;6.528;2023-07-20T03:13:45;4.53;;;3.25;;
27857;SDS011;16852;51.446;6.528;2023-07-20T03:15:46;6.30;;;4.32;;
27857;SDS011;16852;51.446;6.528;2023-07-20T03:17:46;6.43;;;3.92;;
27857;SDS011;16852;51.446;6.528;2023-07-20T03:19:47;5.82;;;3.80;;
27857;SDS011;16852;51.446;6.528;2023-07-20T03:21:47;6.53;;;4.03;;
27857;SDS011;16852;51.446;6.528;2023-07-20T03:23:48;5.88;;;4.00;;
27857;SDS011;16852;51.446;6.528;2023-07-20T03:25:49;5.88;;;4.22;;
27857;SDS011;16852;51.446;6.528;2023-07-20T03:27:49;6.55;;;4.00;;
27857;SDS011;16852;51.446;6.528;2023-07-20T03:29:50;7.68;;;4.75;;
27857;SDS011;16852;51.446;6.528;2023-07-20T03:31:50;6.68;;;4.82;;
27857;SDS011;16852;51.446;6.528;2023-07-20T03:33:51;7.95;;;4.57;;
27857;SDS011;16852;51.446;6.528;2023-07-20T03:35:52;9.55;;;4.55;;
27857;SDS011;16852;51.446;6.528;2023-07-20T03:37:53;10.05;;;5.10;;
27857;SDS011;16852;51.446;6.528;2023-07-20T03:39:53;6.10;;;4.00;;
27857;SDS011;16852;51.446;6.528;2023-07-20T03:41:54;9.63;;;4.38;;
27857;SDS011;16852;51.446;6.528;2023-07-20T03:43:54;7.68;;;4.45;;
27857;SDS011;16852;51.446;6.528;2023-07-20T03:45:55;6.32;;;4.50;;
27857;SDS011;16852;51.446;6.528;2023-07-20T03:47:56;6.07;;;4.05;;
27857;SDS011;16852;51.446;6.528;2023-07-20T03:49:57;6.55;;;4.38;;
27857;SDS011;16852;51.446;6.528;2023-07-20T03:51:58;10.07;;;4.90;;
27857;SDS011;16852;51.446;6.528;2023-07-20T03:53:58;13.38;;;5.03;;
27857;SDS011;16852;51.446;6.528;2023-07-20T03:55:59;6.22;;;4.47;;
27857;SDS011;16852;51.446;6.528;2023-07-20T03:58:00;7.00;;;4.55;;
27857;SDS011;16852;51.446;6.528;2023-07-20T04:00:02;7.22;;;4.45;;
27857;SDS011;16852;51.446;6.528;2023-07-20T04:02:04;6.10;;;4.35;;
27857;SDS011;16852;51.446;6.528;2023-07-20T04:04:06;6.72;;;4.47;;
27857;SDS011;16852;51.446;6.528;2023-07-20T04:06:08;7.78;;;4.82;;
27857;SDS011;16852;51.446;6.528;2023-07-20T04:08:08;6.80;;;4.97;;
27857;SDS011;16852;51.446;6.528;2023-07-20T04:10:11;6.05;;;4.03;;
27857;SDS011;16852;51.446;6.528;2023-07-20T04:12:12;9.77;;;4.78;;
27857;SDS011;16852;51.446;6.528;2023-07-20T04:14:12;8.38;;;4.80;;
27857;SDS011;16852;51.446;6.528;2023-07-20T04:16:13;5.47;;;4.40;;
27857;SDS011;16852;51.446;6.528;2023-07-20T04:18:13;7.28;;;4.45;;
27857;SDS011;16852;51.446;6.528;2023-07-20T04:20:14;4.70;;;3.97;;
27857;SDS011;16852;51.446;6.528;2023-07-20T04:22:14;6.75;;;4.82;;
27857;SDS011;16852;51.446;6.528;2023-07-20T04:24:15;9.07;;;5.28;;
27857;SDS011;16852;51.446;6.528;2023-07-20T04:26:16;7.47;;;3.80;;
27857;SDS011;16852;51.446;6.528;2023-07-20T04:28:16;4.70;;;4.10;;
27857;SDS011;16852;51.446;6.528;2023-07-20T04:30:17;5.43;;;3.90;;
27857;SDS011;16852;51.446;6.528;2023-07-20T04:32:20;6.07;;;4.18;;
27857;SDS011;16852;51.446;6.528;2023-07-20T04:34:21;7.55;;;5.57;;
27857;SDS011;16852;51.446;6.528;2023-07-20T04:36:21;7.80;;;5.53;;
27857;SDS011;16852;51.446;6.528;2023-07-20T04:38:22;7.03;;;4.97;;
27857;SDS011;16852;51.446;6.528;2023-07-20T04:40:24;6.93;;;4.47;;
27857;SDS011;16852;51.446;6.528;2023-07-20T04:42:24;5.70;;;4.82;;
27857;SDS011;16852;51.446;6.528;2023-07-20T04:44:25;7.93;;;5.68;;
27857;SDS011;16852;51.446;6.528;2023-07-20T04:46:25;10.57;;;7.40;;
27857;SDS011;16852;51.446;6.528;2023-07-20T04:48:26;7.78;;;5.78;;
27857;SDS011;16852;51.446;6.528;2023-07-20T04:50:27;7.32;;;6.07;;
27857;SDS011;16852;51.446;6.528;2023-07-20T04:52:27;7.15;;;5.07;;
27857;SDS011;16852;51.446;6.528;2023-07-20T04:54:28;12.38;;;6.80;;
27857;SDS011;16852;51.446;6.528;2023-07-20T04:56:28;6.43;;;5.07;;
27857;SDS011;16852;51.446;6.528;2023-07-20T04:58:29;7.93;;;5.75;;
27857;SDS011;16852;51.446;6.528;2023-07-20T05:00:30;8.80;;;5.70;;
27857;SDS011;16852;51.446;6.528;2023-07-20T05:02:32;8.77;;;5.72;;
27857;SDS011;16852;51.446;6.528;2023-07-20T05:04:32;7.40;;;5.38;;
27857;SDS011;16852;51.446;6.528;2023-07-20T05:06:33;6.03;;;4.10;;
27857;SDS011;16852;51.446;6.528;2023-07-20T05:08:33;7.50;;;5.28;;
27857;SDS011;16852;51.446;6.528;2023-07-20T05:10:34;6.05;;;4.85;;
27857;SDS011;16852;51.446;6.528;2023-07-20T05:12:35;7.05;;;6.07;;
27857;SDS011;16852;51.446;6.528;2023-07-20T05:14:36;6.13;;;4.93;;
27857;SDS011;16852;51.446;6.528;2023-07-20T05:16:36;7.55;;;5.25;;
27857;SDS011;16852;51.446;6.528;2023-07-20T05:18:37;8.70;;;4.72;;
27857;SDS011;16852;51.446;6.528;2023-07-20T05:20:37;5.85;;;4.05;;
27857;SDS011;16852;51.446;6.528;2023-07-20T05:22:38;6.10;;;4.75;;
27857;SDS011;16852;51.446;6.528;2023-07-20T05:24:39;6.20;;;4.65;;
27857;SDS011;16852;51.446;6.528;2023-07-20T05:26:40;7.53;;;5.07;;
27857;SDS011;16852;51.446;6.528;2023-07-20T05:28:40;5.90;;;5.25;;
27857;SDS011;16852;51.446;6.528;2023-07-20T05:30:41;4.88;;;4.03;;
27857;SDS011;16852;51.446;6.528;2023-07-20T05:32:41;5.88;;;4.53;;
27857;SDS011;16852;51.446;6.528;2023-07-20T05:34:42;3.72;;;3.30;;
27857;SDS011;16852;51.446;6.528;2023-07-20T05:36:43;5.63;;;4.22;;
27857;SDS011;16852;51.446;6.528;2023-07-20T05:38:43;7.93;;;3.65;;
27857;SDS011;16852;51.446;6.528;2023-07-20T05:40:44;4.45;;;3.47;;
27857;SDS011;16852;51.446;6.528;2023-07-20T05:42:45;5.75;;;3.72;;
27857;SDS011;16852;51.446;6.528;2023-07-20T05:44:51;4.18;;;3.58;;
27857;SDS011;16852;51.446;6.528;2023-07-20T05:46:52;4.10;;;3.00;;
27857;SDS011;16852;51.446;6.528;2023-07-20T05:48:53;6.03;;;3.33;;
27857;SDS011;16852;51.446;6.528;2023-07-20T05:50:54;4.75;;;3.15;;
27857;SDS011;16852;51.446;6.528;2023-07-20T05:52:54;5.03;;;3.08;;
27857;SDS011;16852;51.446;6.528;2023-07-20T05:54:55;5.35;;;3.80;;
27857;SDS011;16852;51.446;6.528;2023-07-20T05:56:56;3.63;;;2.55;;
27857;SDS011;16852;51.446;6.528;2023-07-20T05:58:56;4.03;;;3.28;;
27857;SDS011;16852;51.446;6.528;2023-07-20T06:00:57;3.88;;;3.10;;
27857;SDS011;16852;51.446;6.528;2023-07-20T06:02:58;5.38;;;3.33;;
27857;SDS011;16852;51.446;6.528;2023-07-20T06:04:58;4.53;;;2.70;;
27857;SDS011;16852;51.446;6.528;2023-07-20T06:06:59;3.97;;;2.63;;
27857;SDS011;16852;51.446;6.528;2023-07-20T06:09:00;3.25;;;2.55;;
27857;SDS011;16852;51.446;6.528;2023-07-20T06:11:04;4.35;;;2.92;;
27857;SDS011;16852;51.446;6.528;2023-07-20T06:13:04;4.72;;;3.03;;
27857;SDS011;16852;51.446;6.528;2023-07-20T06:15:05;4.50;;;2.38;;
27857;SDS011;16852;51.446;6.528;2023-07-20T06:17:23;4.40;;;3.03;;
27857;SDS011;16852;51.446;6.528;2023-07-20T06:19:24;5.15;;;2.70;;
27857;SDS011;16852;51.446;6.528;2023-07-20T06:21:24;2.33;;;2.05;;
27857;SDS011;16852;51.446;6.528;2023-07-20T06:23:25;3.33;;;2.70;;
27857;SDS011;16852;51.446;6.528;2023-07-20T06:25:26;7.88;;;3.15;;
27857;SDS011;16852;51.446;6.528;2023-07-20T06:27:26;3.95;;;2.67;;
27857;SDS011;16852;51.446;6.528;2023-07-20T06:29:27;3.42;;;2.25;;
27857;SDS011;16852;51.446;6.528;2023-07-20T06:31:27;2.28;;;2.08;;
27857;SDS011;16852;51.446;6.528;2023-07-20T06:33:28;2.83;;;2.38;;
27857;SDS011;16852;51.446;6.528;2023-07-20T06:35:29;4.82;;;2.70;;
27857;SDS011;16852;51.446;6.528;2023-07-20T06:37:29;2.42;;;1.52;;
27857;SDS011;16852;51.446;6.528;2023-07-20T06:39:30;2.45;;;1.63;;
27857;SDS011;16852;51.446;6.528;2023-07-20T06:41:30;1.70;;;1.45;;
27857;SDS011;16852;51.446;6.528;2023-07-20T06:43:31;3.15;;;1.67;;
27857;SDS011;16852;51.446;6.528;2023-07-20T06:45:31;1.30;;;1.20;;
27857;SDS011;16852;51.446;6.528;2023-07-20T06:47:32;1.75;;;1.05;;
27857;SDS011;16852;51.446;6.528;2023-07-20T06:49:33;1.73;;;1.08;;
27857;SDS011;16852;51.446;6.528;2023-07-20T06:51:33;1.85;;;1.08;;
27857;SDS011;16852;51.446;6.528;2023-07-20T06:53:34;1.38;;;0.90;;
27857;SDS011;16852;51.446;6.528;2023-07-20T06:55:34;1.15;;;0.63;;
27857;SDS011;16852;51.446;6.528;2023-07-20T06:57:35;1.33;;;0.82;;
27857;SDS011;16852;51.446;6.528;2023-07-20T06:59:36;0.68;;;0.60;;
27857;SDS011;16852;51.446;6.528;2023-07-20T07:01:36;1.13;;;0.90;;
27857;SDS011;16852;51.446;6.528;2023-07-20T07:03:37;1.85;;;0.70;;
27857;SDS011;16852;51.446;6.528;2023-07-20T07:05:38;1.15;;;0.80;;
27857;SDS011;16852;51.446;6.528;2023-07-20T07:07:38;0.85;;;0.80;;
27857;SDS011;16852;51.446;6.528;2023-07-20T07:09:39;2.28;;;1.00;;
27857;SDS011;16852;51.446;6.528;2023-07-20T07:11:40;0.80;;;0.73;;
27857;SDS011;16852;51.446;6.528;2023-07-20T07:13:40;1.13;;;0.73;;
27857;SDS011;16852;51.446;6.528;2023-07-20T07:15:42;1.00;;;0.90;;
27857;SDS011;16852;51.446;6.528;2023-07-20T07:17:42;1.58;;;0.95;;
27857;SDS011;16852;51.446;6.528;2023-07-20T07:19:43;1.10;;;1.00;;
27857;SDS011;16852;51.446;6.528;2023-07-20T07:21:44;0.77;;;0.73;;
27857;SDS011;16852;51.446;6.528;2023-07-20T07:23:45;1.00;;;0.80;;
27857;SDS011;16852;51.446;6.528;2023-07-20T07:25:46;1.08;;;0.80;;
27857;SDS011;16852;51.446;6.528;2023-07-20T07:27:47;1.10;;;0.80;;
27857;SDS011;16852;51.446;6.528;2023-07-20T07:29:48;0.73;;;0.60;;
27857;SDS011;16852;51.446;6.528;2023-07-20T07:31:49;0.63;;;0.60;;
27857;SDS011;16852;51.446;6.528;2023-07-20T07:33:49;1.92;;;0.80;;
27857;SDS011;16852;51.446;6.528;2023-07-20T07:35:50;1.55;;;0.60;;
27857;SDS011;16852;51.446;6.528;2023-07-20T07:37:52;1.00;;;0.70;;
27857;SDS011;16852;51.446;6.528;2023-07-20T07:39:53;1.05;;;1.00;;
27857;SDS011;16852;51.446;6.528;2023-07-20T07:41:53;0.65;;;0.52;;
27857;SDS011;16852;51.446;6.528;2023-07-20T07:43:54;1.63;;;0.70;;
27857;SDS011;16852;51.446;6.528;2023-07-20T07:45:54;2.90;;;0.80;;
27857;SDS011;16852;51.446;6.528;2023-07-20T07:47:55;0.73;;;0.73;;
27857;SDS011;16852;51.446;6.528;2023-07-20T07:49:56;0.45;;;0.40;;
27857;SDS011;16852;51.446;6.528;2023-07-20T07:51:57;1.25;;;0.40;;
27857;SDS011;16852;51.446;6.528;2023-07-20T07:53:58;0.43;;;0.43;;
27857;SDS011;16852;51.446;6.528;2023-07-20T07:55:58;1.60;;;0.77;;
27857;SDS011;16852;51.446;6.528;2023-07-20T07:57:59;1.30;;;0.60;;
27857;SDS011;16852;51.446;6.528;2023-07-20T08:00:00;0.88;;;0.50;;
27857;SDS011;16852;51.446;6.528;2023-07-20T08:02:00;0.80;;;0.60;;
27857;SDS011;16852;51.446;6.528;2023-07-20T08:04:02;1.50;;;0.55;;
27857;SDS011;16852;51.446;6.528;2023-07-20T08:06:03;1.00;;;0.60;;
27857;SDS011;16852;51.446;6.528;2023-07-20T08:08:04;1.38;;;0.60;;
27857;SDS011;16852;51.446;6.528;2023-07-20T08:10:05;0.75;;;0.70;;
27857;SDS011;16852;51.446;6.528;2023-07-20T08:12:06;0.95;;;0.60;;
27857;SDS011;16852;51.446;6.528;2023-07-20T08:14:07;0.60;;;0.60;;
27857;SDS011;16852;51.446;6.528;2023-07-20T08:16:08;0.90;;;0.70;;
27857;SDS011;16852;51.446;6.528;2023-07-20T08:18:08;0.98;;;0.60;;
27857;SDS011;16852;51.446;6.528;2023-07-20T08:20:09;0.73;;;0.52;;
27857;SDS011;16852;51.446;6.528;2023-07-20T08:22:12;0.60;;;0.40;;
27857;SDS011;16852;51.446;6.528;2023-07-20T08:24:13;0.70;;;0.50;;
27857;SDS011;16852;51.446;6.528;2023-07-20T08:26:13;0.30;;;0.25;;
27857;SDS011;16852;51.446;6.528;2023-07-20T08:28:14;0.63;;;0.50;;
27857;SDS011;16852;51.446;6.528;2023-07-20T08:30:16;0.98;;;0.57;;
27857;SDS011;16852;51.446;6.528;2023-07-20T08:32:17;1.35;;;0.50;;
27857;SDS011;16852;51.446;6.528;2023-07-20T08:34:17;0.80;;;0.50;;
27857;SDS011;16852;51.446;6.528;2023-07-20T08:36:18;0.60;;;0.55;;
27857;SDS011;16852;51.446;6.528;2023-07-20T08:38:18;0.52;;;0.50;;
27857;SDS011;16852;51.446;6.528;2023-07-20T08:40:19;1.25;;;0.60;;
27857;SDS011;16852;51.446;6.528;2023-07-20T08:42:20;0.35;;;0.35;;
27857;SDS011;16852;51.446;6.528;2023-07-20T08:44:22;1.75;;;0.68;;
27857;SDS011;16852;51.446;6.528;2023-07-20T08:46:24;0.40;;;0.40;;
27857;SDS011;16852;51.446;6.528;2023-07-20T08:48:28;2.70;;;0.70;;
27857;SDS011;16852;51.446;6.528;2023-07-20T08:52:32;0.68;;;0.38;;
27857;SDS011;16852;51.446;6.528;2023-07-20T08:56:36;1.08;;;0.50;;
27857;SDS011;16852;51.446;6.528;2023-07-20T08:58:37;1.30;;;0.30;;
27857;SDS011;16852;51.446;6.528;2023-07-20T09:00:41;0.85;;;0.85;;
27857;SDS011;16852;51.446;6.528;2023-07-20T09:02:41;0.63;;;0.40;;
27857;SDS011;16852;51.446;6.528;2023-07-20T09:04:44;0.82;;;0.60;;
27857;SDS011;16852;51.446;6.528;2023-07-20T09:06:45;0.50;;;0.50;;
27857;SDS011;16852;51.446;6.528;2023-07-20T09:08:47;1.23;;;0.67;;
27857;SDS011;16852;51.446;6.528;2023-07-20T09:10:47;0.60;;;0.40;;
27857;SDS011;16852;51.446;6.528;2023-07-20T09:12:48;0.77;;;0.40;;
27857;SDS011;16852;51.446;6.528;2023-07-20T09:14:49;0.65;;;0.30;;
27857;SDS011;16852;51.446;6.528;2023-07-20T09:16:50;0.38;;;0.35;;
27857;SDS011;16852;51.446;6.528;2023-07-20T09:18:54;0.40;;;0.30;;
27857;SDS011;16852;51.446;6.528;2023-07-20T09:21:01;0.52;;;0.40;;
27857;SDS011;16852;51.446;6.528;2023-07-20T09:23:06;0.40;;;0.40;;
27857;SDS011;16852;51.446;6.528;2023-07-20T09:25:16;1.20;;;0.55;;
27857;SDS011;16852;51.446;6.528;2023-07-20T09:27:19;0.85;;;0.45;;
27857;SDS011;16852;51.446;6.528;2023-07-20T09:29:20;0.47;;;0.30;;
27857;SDS011;16852;51.446;6.528;2023-07-20T09:31:21;1.80;;;0.43;;
27857;SDS011;16852;51.446;6.528;2023-07-20T09:33:22;1.13;;;0.50;;
27857;SDS011;16852;51.446;6.528;2023-07-20T09:35:23;0.50;;;0.40;;
27857;SDS011;16852;51.446;6.528;2023-07-20T09:37:24;1.45;;;0.50;;
27857;SDS011;16852;51.446;6.528;2023-07-20T09:39:25;1.17;;;0.50;;
27857;SDS011;16852;51.446;6.528;2023-07-20T09:41:25;0.52;;;0.50;;
27857;SDS011;16852;51.446;6.528;2023-07-20T09:43:28;0.32;;;0.32;;
27857;SDS011;16852;51.446;6.528;2023-07-20T09:45:32;1.30;;;0.55;;
27857;SDS011;16852;51.446;6.528;2023-07-20T09:47:35;0.28;;;0.28;;
27857;SDS011;16852;51.446;6.528;2023-07-20T09:49:41;0.85;;;0.50;;
27857;SDS011;16852;51.446;6.528;2023-07-20T09:51:41;0.38;;;0.38;;
27857;SDS011;16852;51.446;6.528;2023-07-20T09:53:43;1.70;;;0.55;;
27857;SDS011;16852;51.446;6.528;2023-07-20T09:55:46;1.05;;;0.40;;
27857;SDS011;16852;51.446;6.528;2023-07-20T09:57:47;0.65;;;0.30;;
27857;SDS011;16852;51.446;6.528;2023-07-20T09:59:48;0.95;;;0.50;;
27857;SDS011;16852;51.446;6.528;2023-07-20T10:01:49;0.65;;;0.35;;
27857;SDS011;16852;51.446;6.528;2023-07-20T10:03:53;0.52;;;0.30;;
27857;SDS011;16852;51.446;6.528;2023-07-20T10:06:02;0.77;;;0.47;;
27857;SDS011;16852;51.446;6.528;2023-07-20T10:08:06;0.20;;;0.20;;
27857;SDS011;16852;51.446;6.528;2023-07-20T10:10:11;1.67;;;0.50;;
27857;SDS011;16852;51.446;6.528;2023-07-20T10:12:14;0.47;;;0.40;;
27857;SDS011;16852;51.446;6.528;2023-07-20T10:14:16;1.48;;;0.60;;
27857;SDS011;16852;51.446;6.528;2023-07-20T10:16:30;2.95;;;0.60;;
27857;SDS011;16852;51.446;6.528;2023-07-20T10:20:51;1.65;;;0.47;;
27857;SDS011;16852;51.446;6.528;2023-07-20T10:24:55;1.25;;;0.40;;
27857;SDS011;16852;51.446;6.528;2023-07-20T10:26:58;0.32;;;0.32;;
27857;SDS011;16852;51.446;6.528;2023-07-20T10:28:59;0.90;;;0.50;;
27857;SDS011;16852;51.446;6.528;2023-07-20T10:31:01;1.10;;;0.80;;
27857;SDS011;16852;51.446;6.528;2023-07-20T10:33:02;0.40;;;0.40;;
27857;SDS011;16852;51.446;6.528;2023-07-20T10:35:11;0.95;;;0.50;;
27857;SDS011;16852;51.446;6.528;2023-07-20T10:37:45;8.18;;;1.23;;
27857;SDS011;16852;51.446;6.528;2023-07-20T10:39:46;12.88;;;2.97;;
27857;SDS011;16852;51.446;6.528;2023-07-20T10:41:46;6.20;;;2.10;;
27857;SDS011;16852;51.446;6.528;2023-07-20T10:43:48;2.97;;;0.80;;
27857;SDS011;16852;51.446;6.528;2023-07-20T10:45:50;22.42;;;3.67;;
27857;SDS011;16852;51.446;6.528;2023-07-20T10:47:52;15.82;;;2.75;;
27857;SDS011;16852;51.446;6.528;2023-07-20T10:49:59;22.88;;;3.47;;
27857;SDS011;16852;51.446;6.528;2023-07-20T10:52:04;1.80;;;0.95;;
27857;SDS011;16852;51.446;6.528;2023-07-20T10:56:19;1.17;;;0.82;;
27857;SDS011;16852;51.446;6.528;2023-07-20T10:58:21;10.23;;;2.55;;
27857;SDS011;16852;51.446;6.528;2023-07-20T11:00:26;1.95;;;0.75;;
27857;SDS011;16852;51.446;6.528;2023-07-20T11:02:30;11.68;;;1.88;;
27857;SDS011;16852;51.446;6.528;2023-07-20T11:04:58;2.10;;;0.60;;
27857;SDS011;16852;51.446;6.528;2023-07-20T11:06:59;0.30;;;0.30;;
27857;SDS011;16852;51.446;6.528;2023-07-20T11:11:22;6.47;;;1.23;;
27857;SDS011;16852;51.446;6.528;2023-07-20T11:13:25;0.95;;;0.40;;
27857;SDS011;16852;51.446;6.528;2023-07-20T11:15:26;0.25;;;0.20;;
27857;SDS011;16852;51.446;6.528;2023-07-20T11:17:39;0.73;;;0.40;;
27857;SDS011;16852;51.446;6.528;2023-07-20T11:19:40;0.85;;;0.60;;
27857;SDS011;16852;51.446;6.528;2023-07-20T11:21:41;0.32;;;0.32;;
27857;SDS011;16852;51.446;6.528;2023-07-20T11:23:43;0.47;;;0.38;;
27857;SDS011;16852;51.446;6.528;2023-07-20T11:25:45;0.30;;;0.30;;
27857;SDS011;16852;51.446;6.528;2023-07-20T11:27:46;0.82;;;0.40;;
27857;SDS011;16852;51.446;6.528;2023-07-20T11:29:48;1.05;;;0.30;;
27857;SDS011;16852;51.446;6.528;2023-07-20T11:31:49;0.37;;;0.23;;
27857;SDS011;16852;51.446;6.528;2023-07-20T11:33:50;0.82;;;0.40;;
27857;SDS011;16852;51.446;6.528;2023-07-20T11:35:50;0.60;;;0.35;;
27857;SDS011;16852;51.446;6.528;2023-07-20T11:37:51;1.95;;;0.40;;
27857;SDS011;16852;51.446;6.528;2023-07-20T11:39:55;1.50;;;0.50;;
27857;SDS011;16852;51.446;6.528;2023-07-20T11:41:57;1.50;;;0.50;;
27857;SDS011;16852;51.446;6.528;2023-07-20T11:43:58;0.40;;;0.40;;
27857;SDS011;16852;51.446;6.528;2023-07-20T11:45:59;0.30;;;0.30;;
27857;SDS011;16852;51.446;6.528;2023-07-20T11:48:00;1.05;;;0.30;;
27857;SDS011;16852;51.446;6.528;2023-07-20T11:50:04;0.73;;;0.60;;
27857;SDS011;16852;51.446;6.528;2023-07-20T11:52:06;1.08;;;0.40;;
27857;SDS011;16852;51.446;6.528;2023-07-20T11:54:08;0.63;;;0.40;;
27857;SDS011;16852;51.446;6.528;2023-07-20T11:56:10;0.68;;;0.30;;
27857;SDS011;16852;51.446;6.528;2023-07-20T11:58:11;0.30;;;0.30;;
27857;SDS011;16852;51.446;6.528;2023-07-20T12:00:11;0.35;;;0.35;;
27857;SDS011;16852;51.446;6.528;2023-07-20T12:02:12;0.77;;;0.30;;
27857;SDS011;16852;51.446;6.528;2023-07-20T12:04:13;0.68;;;0.50;;
27857;SDS011;16852;51.446;6.528;2023-07-20T12:06:13;0.47;;;0.30;;
27857;SDS011;16852;51.446;6.528;2023-07-20T12:08:14;1.00;;;0.50;;
27857;SDS011;16852;51.446;6.528;2023-07-20T12:10:15;0.50;;;0.30;;
27857;SDS011;16852;51.446;6.528;2023-07-20T12:12:16;0.90;;;0.40;;
27857;SDS011;16852;51.446;6.528;2023-07-20T12:16:19;1.48;;;0.50;;
27857;SDS011;16852;51.446;6.528;2023-07-20T12:18:22;0.40;;;0.40;;
27857;SDS011;16852;51.446;6.528;2023-07-20T12:20:26;0.82;;;0.50;;
27857;SDS011;16852;51.446;6.528;2023-07-20T12:22:41;0.40;;;0.40;;
27857;SDS011;16852;51.446;6.528;2023-07-20T12:24:43;0.40;;;0.40;;
27857;SDS011;16852;51.446;6.528;2023-07-20T12:26:43;0.98;;;0.50;;
27857;SDS011;16852;51.446;6.528;2023-07-20T12:28:44;0.30;;;0.30;;
27857;SDS011;16852;51.446;6.528;2023-07-20T12:30:45;2.90;;;0.30;;
27857;SDS011;16852;51.446;6.528;2023-07-20T12:34:48;0.30;;;0.25;;
27857;SDS011;16852;51.446;6.528;2023-07-20T12:36:49;0.40;;;0.40;;
27857;SDS011;16852;51.446;6.528;2023-07-20T12:38:50;0.40;;;0.30;;
27857;SDS011;16852;51.446;6.528;2023-07-20T12:40:50;0.65;;;0.40;;